KPUW/PUW METAR and TAF weather

Enter ICAO airport designator
Station Type Date Time Source
KPUW METAR 2021/04/13 06:53 UTC NOAA

KPUW 130653Z AUTO 07011KT 10SM CLR 04/M10 A3022 RMK AO2 SLP243 T00441100


Station Type Date Time Source
KPUW Decoded METAR 2021/04/13 06:53 UTC NOAA

PULLMAN/MOSCOW RGNL AIRPORT , WA, United States (KPUW) 46-45N 117-07W 773M
Apr 13, 2021 - 02:53 AM EDT / 2021.04.13 0653 UTC
Wind: from the ENE (070 degrees) at 13 MPH (11 KT):0
Visibility: 10 mile(s):0
Sky conditions: clear
Temperature: 39.9 F (4.4 C)
Dew Point: 14.0 F (-10.0 C)
Relative Humidity: 34%
Pressure (altimeter): 30.22 in. Hg (1023 hPa)
ob: KPUW 130653Z AUTO 07011KT 10SM CLR 04/M10 A3022 RMK AO2 SLP243 T00441100
cycle: 7

Station Type Date Time Source
KPUW TAF 2021/04/13 06:21 UTC NOAA

TAF KPUW 130520Z 1306/1406 07011KT P6SM SKC WS020/09040KT
FM131500 08015G23KT P6SM FEW070
FM140300 05011KT P6SM SCT250

Example: see airport list